Grasonville, MD (21638)

3:08 AM EST on February 11, 2016 (GMT -0500)
Prospect Bay | | Change Station
CLOSE
Current Station
Personal Weather Station
Location: Grasonville, MD
Elevation: 10 ft
Nearby Weather Stations

Elev 10 ft 38.92 °N, 76.20 °W | Updated 3 minutes ago

Clear
Clear
26.3 °F
Feels Like 11 °F
N
25.0
Wind Variable Wind from WNW
Gusts 29.0 mph

Today
High -- | Low -- °F
--% Chance of Precip.
Yesterday
High -- | Low -- °F
Precip. -- in
Pressure 29.98 in
Visibility 10.0 miles
Clouds Clear
Windchill 11 °F
Dew Point 16 °F
Humidity 64%
Rainfall 0.00 in
Snow Depth Not available.
7:01 AM 5:37 PM
Waxing Crescent, 10% visible
METAR KESN 110756Z AUTO 32016G21KT 10SM CLR M04/M12 A2998 RMK AO2 T10371120
Pressure 29.98 in
Visibility 10.0 miles
Clouds Clear
Windchill 11 °F
Dew Point 16 °F
Humidity 64%
Rainfall 0.00 in
Snow Depth Not available.
7:01 AM 5:37 PM
Waxing Crescent, 10% visible
METAR KESN 110756Z AUTO 32016G21KT 10SM CLR M04/M12 A2998 RMK AO2 T10371120

10-Day Weather Forecast

Almanac

Astronomy

Feb. 11, 2016 Rise Set
Actual Time
Civil Twilight
Nautical Twilight
Astronomical Twilight
Moon
Length of Visible Light
Length of Day
Tomorrow will be .
, % of the Moon is Illuminated

Today's Extremes

State Highs State Lows

Community

WunderPhotos

Upload Photos

1,892,030 photos uploaded!

WunderBlog® & News

Nearby

Air Quality

  Air Quality AQ Index Pollutant
Not available.

Snow Depth

Station Depth Elevation

Earthquake Activity

City Distance Mag. Time & Date
Minimum magnitude displayed is 2.5.

Coastal Water Temperatures

Place Temperature

Stations

Nearby Weather Stations

Station Location Temp. Windchill Dew Point Humidity Wind Precip. Elev Updated Type
                   

Watches & Warnings

There are currently no watches in effect.